sensor_id;sensor_type;location;lat;lon;timestamp;pressure;altitude;pressure_sealevel;temperature;humidity
31299;BME280;17927;52.350;13.402;2023-11-21T00:02:12;100417.53;;;13.63;65.20
31299;BME280;17927;52.350;13.402;2023-11-21T00:04:37;100425.34;;;13.66;65.31
31299;BME280;17927;52.350;13.402;2023-11-21T00:07:02;100426.16;;;13.66;65.50
31299;BME280;17927;52.350;13.402;2023-11-21T00:09:28;100424.13;;;13.68;65.37
31299;BME280;17927;52.350;13.402;2023-11-21T00:11:53;100431.94;;;13.72;65.48
31299;BME280;17927;52.350;13.402;2023-11-21T00:14:18;100430.06;;;13.72;65.66
31299;BME280;17927;52.350;13.402;2023-11-21T00:16:43;100438.06;;;13.74;65.47
31299;BME280;17927;52.350;13.402;2023-11-21T00:19:09;100434.31;;;13.75;65.45
31299;BME280;17927;52.350;13.402;2023-11-21T00:21:34;100439.56;;;13.76;65.13
31299;BME280;17927;52.350;13.402;2023-11-21T00:23:59;100435.84;;;13.77;65.29
31299;BME280;17927;52.350;13.402;2023-11-21T00:26:24;100437.53;;;13.78;65.26
31299;BME280;17927;52.350;13.402;2023-11-21T00:28:50;100441.94;;;13.79;65.34
31299;BME280;17927;52.350;13.402;2023-11-21T00:31:15;100432.78;;;13.80;65.37
31299;BME280;17927;52.350;13.402;2023-11-21T00:33:41;100435.31;;;13.82;65.43
31299;BME280;17927;52.350;13.402;2023-11-21T00:36:07;100439.72;;;13.83;65.37
31299;BME280;17927;52.350;13.402;2023-11-21T00:38:35;100434.28;;;13.83;65.27
31299;BME280;17927;52.350;13.402;2023-11-21T00:41:00;100436.84;;;13.84;65.41
31299;BME280;17927;52.350;13.402;2023-11-21T00:43:25;100444.13;;;13.84;65.34
31299;BME280;17927;52.350;13.402;2023-11-21T00:45:50;100446.00;;;13.83;65.20
31299;BME280;17927;52.350;13.402;2023-11-21T00:48:16;100446.00;;;13.83;65.27
31299;BME280;17927;52.350;13.402;2023-11-21T00:50:41;100448.72;;;13.83;65.25
31299;BME280;17927;52.350;13.402;2023-11-21T00:53:07;100445.16;;;13.83;65.43
31299;BME280;17927;52.350;13.402;2023-11-21T00:55:36;100459.59;;;13.83;65.46
31299;BME280;17927;52.350;13.402;2023-11-21T00:58:01;100463.81;;;13.86;65.30
31299;BME280;17927;52.350;13.402;2023-11-21T01:00:29;100465.84;;;13.84;65.07
31299;BME280;17927;52.350;13.402;2023-11-21T01:02:54;100464.16;;;13.83;64.96
31299;BME280;17927;52.350;13.402;2023-11-21T01:05:20;100470.59;;;13.82;65.01
31299;BME280;17927;52.350;13.402;2023-11-21T01:07:45;100478.06;;;13.80;64.87
31299;BME280;17927;52.350;13.402;2023-11-21T01:10:10;100478.44;;;13.77;64.74
31299;BME280;17927;52.350;13.402;2023-11-21T01:12:36;100487.75;;;13.74;64.48
31299;BME280;17927;52.350;13.402;2023-11-21T01:15:06;100487.25;;;13.70;64.28
31299;BME280;17927;52.350;13.402;2023-11-21T01:17:37;100485.38;;;13.63;64.17
31299;BME280;17927;52.350;13.402;2023-11-21T01:20:03;100494.72;;;13.60;64.07
31299;BME280;17927;52.350;13.402;2023-11-21T01:22:35;100500.81;;;13.54;63.70
31299;BME280;17927;52.350;13.402;2023-11-21T01:25:01;100493.19;;;13.49;63.63
31299;BME280;17927;52.350;13.402;2023-11-21T01:27:26;100498.25;;;13.44;63.59
31299;BME280;17927;52.350;13.402;2023-11-21T01:29:51;100497.75;;;13.40;63.59
31299;BME280;17927;52.350;13.402;2023-11-21T01:32:18;100508.91;;;13.37;63.67
31299;BME280;17927;52.350;13.402;2023-11-21T01:34:43;100506.50;;;13.34;63.51
31299;BME280;17927;52.350;13.402;2023-11-21T01:37:09;100506.88;;;13.31;63.28
31299;BME280;17927;52.350;13.402;2023-11-21T01:39:37;100508.03;;;13.29;63.22
31299;BME280;17927;52.350;13.402;2023-11-21T01:42:04;100510.25;;;13.25;63.07
31299;BME280;17927;52.350;13.402;2023-11-21T01:44:29;100512.44;;;13.21;63.39
31299;BME280;17927;52.350;13.402;2023-11-21T01:46:55;100507.34;;;13.18;63.14
31299;BME280;17927;52.350;13.402;2023-11-21T01:49:22;100513.94;;;13.16;62.90
31299;BME280;17927;52.350;13.402;2023-11-21T01:51:49;100515.31;;;13.12;62.99
31299;BME280;17927;52.350;13.402;2023-11-21T01:54:16;100519.34;;;13.07;62.82
31299;BME280;17927;52.350;13.402;2023-11-21T01:56:44;100525.09;;;13.04;62.96
31299;BME280;17927;52.350;13.402;2023-11-21T01:59:11;100525.41;;;13.01;62.65
31299;BME280;17927;52.350;13.402;2023-11-21T02:01:37;100525.78;;;12.98;62.89
31299;BME280;17927;52.350;13.402;2023-11-21T02:04:02;100533.22;;;12.96;62.88
31299;BME280;17927;52.350;13.402;2023-11-21T02:06:28;100534.22;;;12.95;62.86
31299;BME280;17927;52.350;13.402;2023-11-21T02:08:56;100534.38;;;12.93;62.70
31299;BME280;17927;52.350;13.402;2023-11-21T02:11:21;100540.16;;;12.90;62.47
31299;BME280;17927;52.350;13.402;2023-11-21T02:13:46;100535.88;;;12.88;62.55
31299;BME280;17927;52.350;13.402;2023-11-21T02:16:12;100542.31;;;12.87;62.39
31299;BME280;17927;52.350;13.402;2023-11-21T02:18:38;100550.94;;;12.82;62.10
31299;BME280;17927;52.350;13.402;2023-11-21T02:21:04;100552.28;;;12.78;62.20
31299;BME280;17927;52.350;13.402;2023-11-21T02:23:30;100554.47;;;12.74;62.12
31299;BME280;17927;52.350;13.402;2023-11-21T02:25:55;100553.25;;;12.69;62.04
31299;BME280;17927;52.350;13.402;2023-11-21T02:28:21;100562.56;;;12.66;62.01
31299;BME280;17927;52.350;13.402;2023-11-21T02:30:51;100563.03;;;12.61;62.11
31299;BME280;17927;52.350;13.402;2023-11-21T02:33:20;100563.38;;;12.58;61.84
31299;BME280;17927;52.350;13.402;2023-11-21T02:35:45;100569.09;;;12.55;62.09
31299;BME280;17927;52.350;13.402;2023-11-21T02:38:11;100582.97;;;12.52;61.91
31299;BME280;17927;52.350;13.402;2023-11-21T02:40:37;100583.97;;;12.51;62.10
31299;BME280;17927;52.350;13.402;2023-11-21T02:43:02;100581.44;;;12.49;61.95
31299;BME280;17927;52.350;13.402;2023-11-21T02:45:28;100577.16;;;12.47;61.84
31299;BME280;17927;52.350;13.402;2023-11-21T02:47:53;100586.31;;;12.46;62.02
31299;BME280;17927;52.350;13.402;2023-11-21T02:50:21;100585.78;;;12.42;61.88
31299;BME280;17927;52.350;13.402;2023-11-21T02:52:47;100586.09;;;12.39;61.76
31299;BME280;17927;52.350;13.402;2023-11-21T02:55:13;100582.03;;;12.35;61.60
31299;BME280;17927;52.350;13.402;2023-11-21T02:57:38;100584.34;;;12.30;61.58
31299;BME280;17927;52.350;13.402;2023-11-21T03:00:03;100588.38;;;12.26;61.60
31299;BME280;17927;52.350;13.402;2023-11-21T03:02:32;100588.03;;;12.21;61.44
31299;BME280;17927;52.350;13.402;2023-11-21T03:04:57;100590.16;;;12.17;61.40
31299;BME280;17927;52.350;13.402;2023-11-21T03:07:22;100588.09;;;12.11;61.34
31299;BME280;17927;52.350;13.402;2023-11-21T03:09:48;100592.97;;;12.07;61.37
31299;BME280;17927;52.350;13.402;2023-11-21T03:12:13;100588.19;;;12.01;61.30
31299;BME280;17927;52.350;13.402;2023-11-21T03:14:39;100591.19;;;11.98;61.22
31299;BME280;17927;52.350;13.402;2023-11-21T03:17:05;100601.31;;;11.96;61.21
31299;BME280;17927;52.350;13.402;2023-11-21T03:19:31;100591.78;;;11.92;61.27
31299;BME280;17927;52.350;13.402;2023-11-21T03:21:56;100608.38;;;11.88;61.22
31299;BME280;17927;52.350;13.402;2023-11-21T03:24:21;100604.09;;;11.86;61.36
31299;BME280;17927;52.350;13.402;2023-11-21T03:26:47;100609.50;;;11.86;61.26
31299;BME280;17927;52.350;13.402;2023-11-21T03:29:13;100615.91;;;11.85;61.15
31299;BME280;17927;52.350;13.402;2023-11-21T03:31:39;100616.09;;;11.83;61.26
31299;BME280;17927;52.350;13.402;2023-11-21T03:34:05;100617.09;;;11.82;61.42
31299;BME280;17927;52.350;13.402;2023-11-21T03:36:30;100622.50;;;11.82;61.30
31299;BME280;17927;52.350;13.402;2023-11-21T03:38:55;100627.91;;;11.82;61.42
31299;BME280;17927;52.350;13.402;2023-11-21T03:41:21;100625.38;;;11.81;61.03
31299;BME280;17927;52.350;13.402;2023-11-21T03:43:46;100633.31;;;11.82;61.22
31299;BME280;17927;52.350;13.402;2023-11-21T03:46:11;100631.50;;;11.83;61.25
31299;BME280;17927;52.350;13.402;2023-11-21T03:48:37;100637.56;;;11.85;61.47
31299;BME280;17927;52.350;13.402;2023-11-21T03:51:02;100635.88;;;11.84;61.38
31299;BME280;17927;52.350;13.402;2023-11-21T03:53:28;100638.56;;;11.84;61.15
31299;BME280;17927;52.350;13.402;2023-11-21T03:55:53;100653.13;;;11.83;61.05
31299;BME280;17927;52.350;13.402;2023-11-21T03:58:19;100643.31;;;11.82;61.29
31299;BME280;17927;52.350;13.402;2023-11-21T04:00:44;100652.28;;;11.82;61.08
31299;BME280;17927;52.350;13.402;2023-11-21T04:03:09;100656.97;;;11.80;61.11
31299;BME280;17927;52.350;13.402;2023-11-21T04:05:34;100663.41;;;11.79;60.88
31299;BME280;17927;52.350;13.402;2023-11-21T04:08:00;100653.56;;;11.78;60.97
31299;BME280;17927;52.350;13.402;2023-11-21T04:10:25;100663.56;;;11.78;60.92
31299;BME280;17927;52.350;13.402;2023-11-21T04:12:50;100660.16;;;11.76;60.83
31299;BME280;17927;52.350;13.402;2023-11-21T04:15:15;100657.63;;;11.74;61.00
31299;BME280;17927;52.350;13.402;2023-11-21T04:17:41;100660.16;;;11.76;61.21
31299;BME280;17927;52.350;13.402;2023-11-21T04:20:07;100655.75;;;11.75;60.90
31299;BME280;17927;52.350;13.402;2023-11-21T04:22:41;100660.47;;;11.72;60.85
31299;BME280;17927;52.350;13.402;2023-11-21T04:25:09;100672.44;;;11.70;61.13
31299;BME280;17927;52.350;13.402;2023-11-21T04:27:36;100671.56;;;11.69;60.83
31299;BME280;17927;52.350;13.402;2023-11-21T04:30:01;100691.53;;;11.68;61.08
31299;BME280;17927;52.350;13.402;2023-11-21T04:32:26;100689.97;;;11.66;61.02
31299;BME280;17927;52.350;13.402;2023-11-21T04:34:52;100690.16;;;11.64;60.86
31299;BME280;17927;52.350;13.402;2023-11-21T04:37:17;100706.38;;;11.64;60.98
31299;BME280;17927;52.350;13.402;2023-11-21T04:39:42;100715.63;;;11.62;60.76
31299;BME280;17927;52.350;13.402;2023-11-21T04:42:07;100707.84;;;11.58;60.68
31299;BME280;17927;52.350;13.402;2023-11-21T04:44:33;100707.97;;;11.57;60.78
31299;BME280;17927;52.350;13.402;2023-11-21T04:46:58;100712.53;;;11.56;60.70
31299;BME280;17927;52.350;13.402;2023-11-21T04:49:23;100708.25;;;11.54;60.80
31299;BME280;17927;52.350;13.402;2023-11-21T04:51:48;100706.44;;;11.54;60.58
31299;BME280;17927;52.350;13.402;2023-11-21T04:54:14;100709.25;;;11.53;60.51
31299;BME280;17927;52.350;13.402;2023-11-21T04:56:39;100717.38;;;11.53;60.76
31299;BME280;17927;52.350;13.402;2023-11-21T04:59:04;100717.38;;;11.53;60.81
31299;BME280;17927;52.350;13.402;2023-11-21T05:01:29;100725.50;;;11.53;60.88
31299;BME280;17927;52.350;13.402;2023-11-21T05:03:55;100721.97;;;11.52;60.66
31299;BME280;17927;52.350;13.402;2023-11-21T05:06:22;100729.06;;;11.53;60.69
31299;BME280;17927;52.350;13.402;2023-11-21T05:08:49;100730.06;;;11.52;60.54
31299;BME280;17927;52.350;13.402;2023-11-21T05:11:23;100727.38;;;11.52;60.27
31299;BME280;17927;52.350;13.402;2023-11-21T05:13:49;100741.06;;;11.51;60.39
31299;BME280;17927;52.350;13.402;2023-11-21T05:16:14;100736.47;;;11.51;60.07
31299;BME280;17927;52.350;13.402;2023-11-21T05:18:39;100751.16;;;11.49;59.66
31299;BME280;17927;52.350;13.402;2023-11-21T05:21:05;100746.88;;;11.46;59.93
31299;BME280;17927;52.350;13.402;2023-11-21T05:23:30;100750.91;;;11.42;60.09
31299;BME280;17927;52.350;13.402;2023-11-21T05:25:56;100751.19;;;11.39;59.66
31299;BME280;17927;52.350;13.402;2023-11-21T05:28:22;100748.50;;;11.39;59.75
31299;BME280;17927;52.350;13.402;2023-11-21T05:30:47;100755.91;;;11.37;59.70
31299;BME280;17927;52.350;13.402;2023-11-21T05:33:12;100755.19;;;11.35;59.65
31299;BME280;17927;52.350;13.402;2023-11-21T05:35:37;100758.06;;;11.33;59.63
31299;BME280;17927;52.350;13.402;2023-11-21T05:38:03;100764.59;;;11.31;59.58
31299;BME280;17927;52.350;13.402;2023-11-21T05:40:28;100766.63;;;11.29;59.48
31299;BME280;17927;52.350;13.402;2023-11-21T05:42:55;100771.16;;;11.28;59.51
31299;BME280;17927;52.350;13.402;2023-11-21T05:45:21;100772.03;;;11.29;59.34
31299;BME280;17927;52.350;13.402;2023-11-21T05:47:46;100775.41;;;11.31;59.11
31299;BME280;17927;52.350;13.402;2023-11-21T05:50:13;100775.41;;;11.31;59.57
31299;BME280;17927;52.350;13.402;2023-11-21T05:52:43;100776.28;;;11.31;59.19
31299;BME280;17927;52.350;13.402;2023-11-21T05:55:09;100784.22;;;11.33;59.14
31299;BME280;17927;52.350;13.402;2023-11-21T05:57:38;100784.22;;;11.33;59.01
31299;BME280;17927;52.350;13.402;2023-11-21T06:00:09;100788.81;;;11.32;59.15
31299;BME280;17927;52.350;13.402;2023-11-21T06:02:43;100798.75;;;11.32;58.95
31299;BME280;17927;52.350;13.402;2023-11-21T06:05:09;100798.75;;;11.32;58.91
31299;BME280;17927;52.350;13.402;2023-11-21T06:07:34;100800.47;;;11.33;59.03
31299;BME280;17927;52.350;13.402;2023-11-21T06:10:07;100802.34;;;11.32;59.12
31299;BME280;17927;52.350;13.402;2023-11-21T06:12:35;100801.63;;;11.30;59.12
31299;BME280;17927;52.350;13.402;2023-11-21T06:15:04;100808.84;;;11.30;58.73
31299;BME280;17927;52.350;13.402;2023-11-21T06:17:31;100814.28;;;11.30;58.92
31299;BME280;17927;52.350;13.402;2023-11-21T06:19:56;100823.53;;;11.27;58.92
31299;BME280;17927;52.350;13.402;2023-11-21T06:22:22;100821.84;;;11.26;58.68
31299;BME280;17927;52.350;13.402;2023-11-21T06:24:47;100826.53;;;11.24;58.64
31299;BME280;17927;52.350;13.402;2023-11-21T06:27:12;100824.69;;;11.24;58.93
31299;BME280;17927;52.350;13.402;2023-11-21T06:29:38;100829.22;;;11.24;58.71
31299;BME280;17927;52.350;13.402;2023-11-21T06:32:04;100832.94;;;11.23;58.80
31299;BME280;17927;52.350;13.402;2023-11-21T06:34:30;100849.16;;;11.23;58.78
31299;BME280;17927;52.350;13.402;2023-11-21T06:36:55;100848.31;;;11.22;58.73
31299;BME280;17927;52.350;13.402;2023-11-21T06:39:21;100845.91;;;11.19;58.82
31299;BME280;17927;52.350;13.402;2023-11-21T06:41:48;100857.59;;;11.20;58.75
31299;BME280;17927;52.350;13.402;2023-11-21T06:44:13;100860.41;;;11.18;58.54
31299;BME280;17927;52.350;13.402;2023-11-21T06:46:39;100868.53;;;11.18;58.43
31299;BME280;17927;52.350;13.402;2023-11-21T06:49:07;100867.81;;;11.16;58.49
31299;BME280;17927;52.350;13.402;2023-11-21T06:51:32;100867.81;;;11.16;58.57
31299;BME280;17927;52.350;13.402;2023-11-21T06:53:57;100866.81;;;11.17;58.39
31299;BME280;17927;52.350;13.402;2023-11-21T06:56:23;100863.28;;;11.17;58.33
31299;BME280;17927;52.350;13.402;2023-11-21T06:58:48;100867.81;;;11.16;58.49
31299;BME280;17927;52.350;13.402;2023-11-21T07:01:14;100872.38;;;11.16;58.62
31299;BME280;17927;52.350;13.402;2023-11-21T07:03:40;100873.22;;;11.16;58.32
31299;BME280;17927;52.350;13.402;2023-11-21T07:06:06;100869.69;;;11.16;58.43
31299;BME280;17927;52.350;13.402;2023-11-21T07:08:32;100875.22;;;11.14;58.41
31299;BME280;17927;52.350;13.402;2023-11-21T07:10:57;100876.22;;;11.13;58.61
31299;BME280;17927;52.350;13.402;2023-11-21T07:13:23;100885.34;;;11.12;58.54
31299;BME280;17927;52.350;13.402;2023-11-21T07:15:49;100878.22;;;11.11;58.33
31299;BME280;17927;52.350;13.402;2023-11-21T07:18:14;100882.75;;;11.10;58.46
31299;BME280;17927;52.350;13.402;2023-11-21T07:20:39;100889.16;;;11.09;58.34
31299;BME280;17927;52.350;13.402;2023-11-21T07:23:04;100884.75;;;11.08;58.15
31299;BME280;17927;52.350;13.402;2023-11-21T07:25:31;100892.03;;;11.08;58.30
31299;BME280;17927;52.350;13.402;2023-11-21T07:27:57;100896.56;;;11.07;58.00
31299;BME280;17927;52.350;13.402;2023-11-21T07:30:22;100902.13;;;11.06;58.23
31299;BME280;17927;52.350;13.402;2023-11-21T07:32:48;100904.09;;;11.04;58.07
31299;BME280;17927;52.350;13.402;2023-11-21T07:35:13;100904.97;;;11.04;58.11
31299;BME280;17927;52.350;13.402;2023-11-21T07:37:39;100903.28;;;11.03;58.25
31299;BME280;17927;52.350;13.402;2023-11-21T07:40:04;100905.25;;;11.01;58.19
31299;BME280;17927;52.350;13.402;2023-11-21T07:42:30;100912.38;;;11.02;58.13
31299;BME280;17927;52.350;13.402;2023-11-21T07:44:55;100909.78;;;11.01;58.14
31299;BME280;17927;52.350;13.402;2023-11-21T07:47:21;100918.63;;;11.03;58.46
31299;BME280;17927;52.350;13.402;2023-11-21T07:49:46;100911.50;;;11.02;58.16
31299;BME280;17927;52.350;13.402;2023-11-21T07:52:12;100915.19;;;11.01;58.17
31299;BME280;17927;52.350;13.402;2023-11-21T07:54:38;100911.66;;;11.00;58.32
31299;BME280;17927;52.350;13.402;2023-11-21T07:57:03;100922.47;;;11.00;58.21
31299;BME280;17927;52.350;13.402;2023-11-21T07:59:29;100920.75;;;10.99;58.00
31299;BME280;17927;52.350;13.402;2023-11-21T08:01:54;100923.47;;;10.99;58.38
31299;BME280;17927;52.350;13.402;2023-11-21T08:04:20;100927.16;;;10.98;58.11
31299;BME280;17927;52.350;13.402;2023-11-21T08:06:45;100934.44;;;10.98;58.24
31299;BME280;17927;52.350;13.402;2023-11-21T08:09:10;100931.72;;;10.98;58.34
31299;BME280;17927;52.350;13.402;2023-11-21T08:11:37;100939.97;;;10.96;58.24
31299;BME280;17927;52.350;13.402;2023-11-21T08:14:04;100943.66;;;10.95;58.11
31299;BME280;17927;52.350;13.402;2023-11-21T08:16:30;100946.50;;;10.93;58.19
31299;BME280;17927;52.350;13.402;2023-11-21T08:18:55;100950.31;;;10.91;57.86
31299;BME280;17927;52.350;13.402;2023-11-21T08:21:20;100961.28;;;10.89;58.08
31299;BME280;17927;52.350;13.402;2023-11-21T08:23:46;100964.00;;;10.89;58.06
31299;BME280;17927;52.350;13.402;2023-11-21T08:26:12;100956.03;;;10.88;57.76
31299;BME280;17927;52.350;13.402;2023-11-21T08:28:38;100964.16;;;10.88;57.87
31299;BME280;17927;52.350;13.402;2023-11-21T08:31:03;100960.56;;;10.87;57.94
31299;BME280;17927;52.350;13.402;2023-11-21T08:33:29;100963.28;;;10.87;57.81
31299;BME280;17927;52.350;13.402;2023-11-21T08:35:54;100957.88;;;10.87;57.97
31299;BME280;17927;52.350;13.402;2023-11-21T08:38:20;100962.56;;;10.85;57.65
31299;BME280;17927;52.350;13.402;2023-11-21T08:40:45;100958.16;;;10.84;57.65
31299;BME280;17927;52.350;13.402;2023-11-21T08:43:10;100975.50;;;10.81;57.46
31299;BME280;17927;52.350;13.402;2023-11-21T08:45:37;100981.06;;;10.80;57.35
31299;BME280;17927;52.350;13.402;2023-11-21T08:48:02;100972.22;;;10.78;57.32
31299;BME280;17927;52.350;13.402;2023-11-21T08:50:28;100980.34;;;10.78;57.10
31299;BME280;17927;52.350;13.402;2023-11-21T08:52:53;100987.88;;;10.74;57.23
31299;BME280;17927;52.350;13.402;2023-11-21T08:55:19;100983.59;;;10.72;57.05
31299;BME280;17927;52.350;13.402;2023-11-21T08:57:45;100987.28;;;10.71;57.11
31299;BME280;17927;52.350;13.402;2023-11-21T09:00:12;100990.84;;;10.71;57.26
31299;BME280;17927;52.350;13.402;2023-11-21T09:02:38;100988.97;;;10.72;57.24
31299;BME280;17927;52.350;13.402;2023-11-21T09:05:07;100999.78;;;10.72;57.17
31299;BME280;17927;52.350;13.402;2023-11-21T09:07:34;100993.53;;;10.71;56.87
31299;BME280;17927;52.350;13.402;2023-11-21T09:09:59;101008.78;;;10.72;57.11
31299;BME280;17927;52.350;13.402;2023-11-21T09:12:24;101002.50;;;10.72;56.88
31299;BME280;17927;52.350;13.402;2023-11-21T09:14:50;101012.47;;;10.71;57.19
31299;BME280;17927;52.350;13.402;2023-11-21T09:17:15;101021.69;;;10.69;56.95
31299;BME280;17927;52.350;13.402;2023-11-21T09:19:41;101024.38;;;10.69;56.93
31299;BME280;17927;52.350;13.402;2023-11-21T09:22:06;101022.81;;;10.66;56.74
31299;BME280;17927;52.350;13.402;2023-11-21T09:24:32;101028.94;;;10.68;56.76
31299;BME280;17927;52.350;13.402;2023-11-21T09:26:58;101033.47;;;10.68;56.45
31299;BME280;17927;52.350;13.402;2023-11-21T09:29:25;101042.44;;;10.68;56.73
31299;BME280;17927;52.350;13.402;2023-11-21T09:31:50;101044.16;;;10.69;56.49
31299;BME280;17927;52.350;13.402;2023-11-21T09:34:16;101046.00;;;10.69;56.61
31299;BME280;17927;52.350;13.402;2023-11-21T09:36:45;101041.56;;;10.68;56.48
31299;BME280;17927;52.350;13.402;2023-11-21T09:39:10;101054.25;;;10.67;56.44
31299;BME280;17927;52.350;13.402;2023-11-21T09:41:49;101053.53;;;10.65;56.06
31299;BME280;17927;52.350;13.402;2023-11-21T09:44:18;101050.50;;;10.58;56.35
31299;BME280;17927;52.350;13.402;2023-11-21T09:46:47;101045.25;;;10.57;56.52
31299;BME280;17927;52.350;13.402;2023-11-21T09:49:14;101062.47;;;10.56;56.41
31299;BME280;17927;52.350;13.402;2023-11-21T09:51:42;101050.94;;;10.54;56.55
31299;BME280;17927;52.350;13.402;2023-11-21T09:54:10;101059.03;;;10.54;56.25
31299;BME280;17927;52.350;13.402;2023-11-21T09:56:36;101057.31;;;10.53;56.51
31299;BME280;17927;52.350;13.402;2023-11-21T09:59:02;101059.88;;;10.54;56.33
31299;BME280;17927;52.350;13.402;2023-11-21T10:01:32;101060.84;;;10.53;56.56
31299;BME280;17927;52.350;13.402;2023-11-21T10:03:58;101070.81;;;10.53;56.49
31299;BME280;17927;52.350;13.402;2023-11-21T10:06:24;101071.56;;;10.55;56.29
31299;BME280;17927;52.350;13.402;2023-11-21T10:08:52;101064.28;;;10.55;56.42
31299;BME280;17927;52.350;13.402;2023-11-21T10:11:19;101066.72;;;10.58;56.52
31299;BME280;17927;52.350;13.402;2023-11-21T10:13:45;101081.69;;;10.62;56.80
31299;BME280;17927;52.350;13.402;2023-11-21T10:16:14;101067.03;;;10.65;56.63
31299;BME280;17927;52.350;13.402;2023-11-21T10:18:41;101072.03;;;10.70;56.62
31299;BME280;17927;52.350;13.402;2023-11-21T10:21:07;101071.75;;;10.73;56.69
31299;BME280;17927;52.350;13.402;2023-11-21T10:23:34;101073.31;;;10.75;56.74
31299;BME280;17927;52.350;13.402;2023-11-21T10:25:59;101067.53;;;10.80;56.55
31299;BME280;17927;52.350;13.402;2023-11-21T10:28:25;101074.50;;;10.82;56.72
31299;BME280;17927;52.350;13.402;2023-11-21T10:30:51;101069.94;;;10.83;56.59
31299;BME280;17927;52.350;13.402;2023-11-21T10:33:16;101077.06;;;10.84;56.22
31299;BME280;17927;52.350;13.402;2023-11-21T10:38:06;101081.47;;;10.85;56.18
31299;BME280;17927;52.350;13.402;2023-11-21T10:40:37;101093.16;;;10.86;56.03
31299;BME280;17927;52.350;13.402;2023-11-21T10:43:08;101086.16;;;10.83;56.18
31299;BME280;17927;52.350;13.402;2023-11-21T10:45:37;101087.44;;;10.79;56.01
31299;BME280;17927;52.350;13.402;2023-11-21T10:48:07;101087.56;;;10.77;55.90
31299;BME280;17927;52.350;13.402;2023-11-21T10:50:36;101104.91;;;10.75;55.93
31299;BME280;17927;52.350;13.402;2023-11-21T10:53:05;101106.03;;;10.72;55.81
31299;BME280;17927;52.350;13.402;2023-11-21T10:55:32;101108.88;;;10.71;56.06
31299;BME280;17927;52.350;13.402;2023-11-21T10:58:02;101105.44;;;10.69;56.08
31299;BME280;17927;52.350;13.402;2023-11-21T11:00:29;101105.59;;;10.67;56.26
31299;BME280;17927;52.350;13.402;2023-11-21T11:02:54;101105.00;;;10.63;56.03
31299;BME280;17927;52.350;13.402;2023-11-21T11:05:21;101100.72;;;10.61;56.02
31299;BME280;17927;52.350;13.402;2023-11-21T11:07:48;101104.69;;;10.57;55.83
31299;BME280;17927;52.350;13.402;2023-11-21T11:10:19;101114.88;;;10.53;56.16
31299;BME280;17927;52.350;13.402;2023-11-21T11:12:47;101113.06;;;10.54;56.20
31299;BME280;17927;52.350;13.402;2023-11-21T11:15:13;101120.19;;;10.55;56.33
31299;BME280;17927;52.350;13.402;2023-11-21T11:17:40;101120.03;;;10.56;56.46
31299;BME280;17927;52.350;13.402;2023-11-21T11:20:08;101105.28;;;10.60;56.51
31299;BME280;17927;52.350;13.402;2023-11-21T11:26:01;101124.31;;;10.59;56.47
31299;BME280;17927;52.350;13.402;2023-11-21T11:28:44;101123.59;;;10.57;56.56
31299;BME280;17927;52.350;13.402;2023-11-21T11:34:00;101137.38;;;10.54;56.22
31299;BME280;17927;52.350;13.402;2023-11-21T11:36:49;101144.59;;;10.53;56.48
31299;BME280;17927;52.350;13.402;2023-11-21T11:39:39;101149.28;;;10.51;56.62
31299;BME280;17927;52.350;13.402;2023-11-21T11:42:08;101151.53;;;10.46;56.49
31299;BME280;17927;52.350;13.402;2023-11-21T11:47:19;101159.19;;;10.41;56.71
31299;BME280;17927;52.350;13.402;2023-11-21T11:50:00;101157.47;;;10.40;56.44
31299;BME280;17927;52.350;13.402;2023-11-21T11:52:35;101167.66;;;10.36;56.62
31299;BME280;17927;52.350;13.402;2023-11-21T11:55:02;101166.91;;;10.34;56.57
31299;BME280;17927;52.350;13.402;2023-11-21T11:57:33;101164.22;;;10.34;56.61
31299;BME280;17927;52.350;13.402;2023-11-21T12:02:36;101189.41;;;10.34;56.87
31299;BME280;17927;52.350;13.402;2023-11-21T12:05:16;101180.56;;;10.32;56.63
31299;BME280;17927;52.350;13.402;2023-11-21T12:07:51;101187.94;;;10.30;56.91
31299;BME280;17927;52.350;13.402;2023-11-21T12:10:22;101198.72;;;10.30;56.65
31299;BME280;17927;52.350;13.402;2023-11-21T12:12:51;101200.69;;;10.28;56.55
31299;BME280;17927;52.350;13.402;2023-11-21T12:15:18;101204.38;;;10.27;56.62
31299;BME280;17927;52.350;13.402;2023-11-21T12:17:44;101212.50;;;10.27;56.75
31299;BME280;17927;52.350;13.402;2023-11-21T12:20:13;101210.91;;;10.25;56.59
31299;BME280;17927;52.350;13.402;2023-11-21T12:22:49;101220.97;;;10.23;56.45
31299;BME280;17927;52.350;13.402;2023-11-21T12:25:16;101223.78;;;10.21;56.84
31299;BME280;17927;52.350;13.402;2023-11-21T12:27:43;101219.38;;;10.20;56.86
31299;BME280;17927;52.350;13.402;2023-11-21T12:30:10;101217.56;;;10.20;56.64
31299;BME280;17927;52.350;13.402;2023-11-21T12:32:39;101228.22;;;10.22;56.87
31299;BME280;17927;52.350;13.402;2023-11-21T12:35:05;101233.50;;;10.24;56.88
31299;BME280;17927;52.350;13.402;2023-11-21T12:37:31;101234.47;;;10.23;56.88
31299;BME280;17927;52.350;13.402;2023-11-21T12:39:57;101245.28;;;10.23;56.88
31299;BME280;17927;52.350;13.402;2023-11-21T12:42:23;101240.97;;;10.20;56.80
31299;BME280;17927;52.350;13.402;2023-11-21T12:44:48;101241.84;;;10.20;56.69
31299;BME280;17927;52.350;13.402;2023-11-21T12:47:30;101234.16;;;10.04;57.39
31299;BME280;17927;52.350;13.402;2023-11-21T12:49:57;101241.41;;;10.04;56.85
31299;BME280;17927;52.350;13.402;2023-11-21T12:52:24;101239.56;;;10.04;56.92